createdAt,value
2023-05-08T00:00:08.344Z,99340.34
2023-05-08T00:05:13.496Z,99341.91
2023-05-08T00:10:17.466Z,99346.88
2023-05-08T00:15:21.579Z,99345.31
2023-05-08T00:20:27.243Z,99346.03
2023-05-08T00:25:32.164Z,99338.50
2023-05-08T00:30:36.481Z,99332.72
2023-05-08T00:35:43.106Z,99343.31
2023-05-08T00:40:46.994Z,99337.66
2023-05-08T00:45:51.425Z,99347.88
2023-05-08T00:50:56.915Z,99353.31
2023-05-08T00:56:01.284Z,99349.72
2023-05-08T01:01:06.036Z,99360.97
2023-05-08T01:06:11.924Z,99366.19
2023-05-08T01:11:22.816Z,99366.59
2023-05-08T01:16:33.542Z,99365.50
2023-05-08T01:21:46.788Z,99384.56
2023-05-08T01:27:33.248Z,99377.66
2023-05-08T01:32:42.984Z,99393.34
2023-05-08T01:37:52.777Z,99392.53
2023-05-08T01:43:04.933Z,99395.41
2023-05-08T01:48:13.604Z,99389.66
2023-05-08T01:53:24.042Z,99390.66
2023-05-08T01:58:29.020Z,99394.97
2023-05-08T02:03:36.085Z,99386.91
2023-05-08T02:08:40.893Z,99393.91
2023-05-08T02:13:46.380Z,99400.19
2023-05-08T02:18:53.349Z,99396.84
2023-05-08T02:23:58.513Z,99395.13
2023-05-08T02:29:03.724Z,99393.84
2023-05-08T02:34:10.672Z,99401.63
2023-05-08T02:39:16.225Z,99395.38
2023-05-08T02:44:20.693Z,99401.66
2023-05-08T02:49:32.029Z,99404.59
2023-05-08T02:54:43.418Z,99402.56
2023-05-08T02:59:58.070Z,99403.69
2023-05-08T03:05:11.291Z,99405.72
2023-05-08T03:10:16.879Z,99400.38
2023-05-08T03:15:26.924Z,99396.31
2023-05-08T03:20:34.802Z,99405.72
2023-05-08T03:25:41.073Z,99405.72
2023-05-08T03:30:46.456Z,99408.09
2023-05-08T03:35:54.752Z,99412.44
2023-05-08T03:41:00.478Z,99407.38
2023-05-08T03:46:06.299Z,99417.84
2023-05-08T03:51:12.241Z,99422.78
2023-05-08T03:56:17.650Z,99425.09
2023-05-08T04:01:24.922Z,99427.31
2023-05-08T04:06:48.594Z,99435.56
2023-05-08T04:12:03.432Z,99435.69
2023-05-08T04:17:10.988Z,99438.41
2023-05-08T04:22:19.844Z,99452.91
2023-05-08T04:27:24.721Z,99460.78
2023-05-08T04:32:30.318Z,99452.94
2023-05-08T04:37:37.148Z,99466.88
2023-05-08T04:42:43.083Z,99473.84
2023-05-08T04:47:47.670Z,99481.13
2023-05-08T04:52:54.422Z,99488.88
2023-05-08T04:57:58.871Z,99506.09
2023-05-08T05:03:03.089Z,99502.91
2023-05-08T05:08:09.181Z,99511.28
2023-05-08T05:13:13.741Z,99509.50
2023-05-08T05:18:18.277Z,99524.91
2023-05-08T05:23:23.792Z,99525.22
2023-05-08T05:28:28.157Z,99525.44
2023-05-08T05:33:32.649Z,99526.16
2023-05-08T05:38:38.434Z,99522.94
2023-05-08T05:43:42.861Z,99521.69
2023-05-08T05:48:46.979Z,99547.66
2023-05-08T05:53:52.852Z,99549.78
2023-05-08T05:58:57.214Z,99551.88
2023-05-08T06:04:02.591Z,99555.53
2023-05-08T06:09:08.634Z,99542.94
2023-05-08T06:14:12.514Z,99556.44
2023-05-08T06:19:17.042Z,99557.97
2023-05-08T06:24:22.680Z,99563.19
2023-05-08T06:29:26.731Z,99560.63
2023-05-08T06:34:31.563Z,99566.09
2023-05-08T06:39:36.884Z,99569.28
2023-05-08T06:44:41.224Z,99570.50
2023-05-08T06:49:45.292Z,99575.19
2023-05-08T06:54:50.734Z,99581.19
2023-05-08T06:59:54.831Z,99574.31
2023-05-08T07:04:59.095Z,99585.38
2023-05-08T07:10:07.255Z,99590.28
2023-05-08T07:15:24.717Z,99584.19
2023-05-08T07:20:30.017Z,99600.28
2023-05-08T07:25:35.269Z,99587.97
2023-05-08T07:30:39.056Z,99586.78
2023-05-08T07:35:43.126Z,99585.75
2023-05-08T07:40:49.016Z,99587.91
2023-05-08T07:45:53.267Z,99586.31
2023-05-08T07:50:57.728Z,99585.66
2023-05-08T07:56:03.300Z,99584.88
2023-05-08T08:01:07.153Z,99580.03
2023-05-08T08:06:11.305Z,99591.03
2023-05-08T08:11:17.188Z,99581.75
2023-05-08T08:16:21.352Z,99590.44
2023-05-08T08:21:25.284Z,99592.72
2023-05-08T08:26:30.455Z,99584.66
2023-05-08T08:31:34.412Z,99581.34
2023-05-08T08:36:38.469Z,99584.81
2023-05-08T08:41:43.692Z,99594.00
2023-05-08T08:46:53.119Z,99586.56
2023-05-08T08:51:59.756Z,99584.53
2023-05-08T08:57:08.209Z,99593.06
2023-05-08T09:02:17.901Z,99581.25
2023-05-08T09:07:22.916Z,99602.97
2023-05-08T09:12:29.011Z,99597.09
2023-05-08T09:17:33.063Z,99596.13
2023-05-08T09:22:38.053Z,99597.84
2023-05-08T09:27:43.254Z,99597.84
2023-05-08T09:32:50.002Z,99599.81
2023-05-08T09:37:55.547Z,99590.84
2023-05-08T09:43:13.602Z,99575.22
2023-05-08T09:48:17.886Z,99587.69
2023-05-08T09:53:31.951Z,99582.28
2023-05-08T09:58:41.012Z,99575.25
2023-05-08T10:03:49.435Z,99584.84
2023-05-08T10:09:08.101Z,99583.84
2023-05-08T10:14:13.827Z,99588.28
2023-05-08T10:19:19.873Z,99590.22
2023-05-08T10:24:28.600Z,99578.47
2023-05-08T10:29:42.386Z,99577.91
2023-05-08T10:34:48.057Z,99572.06
2023-05-08T10:39:53.311Z,99562.19
2023-05-08T10:44:59.111Z,99555.84
2023-05-08T10:50:07.111Z,99575.25
2023-05-08T10:55:20.461Z,99570.81
2023-05-08T11:00:25.882Z,99565.81
2023-05-08T11:05:29.950Z,99566.53
2023-05-08T11:10:37.294Z,99554.78
2023-05-08T11:15:43.334Z,99553.25
2023-05-08T11:20:57.472Z,99557.91
2023-05-08T11:26:02.929Z,99543.25
2023-05-08T11:31:09.466Z,99567.13
2023-05-08T11:36:14.340Z,99547.91
2023-05-08T11:41:22.702Z,99564.81
2023-05-08T11:46:39.164Z,99548.84
2023-05-08T11:51:46.916Z,99553.31
2023-05-08T11:56:52.096Z,99542.34
2023-05-08T12:02:07.795Z,99546.13
2023-05-08T12:07:13.522Z,99557.91
2023-05-08T12:12:17.606Z,99549.38
2023-05-08T12:17:23.743Z,99551.97
2023-05-08T12:22:28.044Z,99554.97
2023-05-08T12:27:32.110Z,99551.56
2023-05-08T12:32:38.062Z,99556.75
2023-05-08T12:37:41.952Z,99570.47
2023-05-08T12:42:47.013Z,99561.34
2023-05-08T12:47:54.316Z,99578.31
2023-05-08T12:53:04.043Z,99566.56
2023-05-08T12:58:14.695Z,99563.41
2023-05-08T13:03:25.983Z,99550.63
2023-05-08T13:08:34.129Z,99563.50
2023-05-08T13:13:38.516Z,99552.16
2023-05-08T13:18:44.599Z,99553.41
2023-05-08T13:23:49.070Z,99560.47
2023-05-08T13:28:55.992Z,99547.25
2023-05-08T13:34:02.034Z,99547.59
2023-05-08T13:39:06.320Z,99553.34
2023-05-08T13:44:10.363Z,99541.19
2023-05-08T13:49:15.767Z,99536.47
2023-05-08T13:54:19.781Z,99535.00
2023-05-08T13:59:23.996Z,99522.00
2023-05-08T14:04:29.423Z,99511.94
2023-05-08T14:09:33.679Z,99522.97
2023-05-08T14:14:37.465Z,99520.66
2023-05-08T14:19:42.787Z,99530.09
2023-05-08T14:24:47.225Z,99528.84
2023-05-08T14:29:53.521Z,99530.50
2023-05-08T14:34:59.162Z,99523.13
2023-05-08T14:40:04.111Z,99517.53
2023-05-08T14:45:09.450Z,99529.41
2023-05-08T14:50:14.973Z,99527.69
2023-05-08T15:00:44.884Z,99524.66
2023-05-08T15:05:50.356Z,99523.75
2023-05-08T15:10:54.440Z,99526.94
2023-05-08T15:15:59.438Z,99535.84
2023-05-08T15:21:05.920Z,99523.31
2023-05-08T15:26:10.087Z,99524.69
2023-05-08T15:31:14.380Z,99519.28
2023-05-08T15:36:19.611Z,99509.66
2023-05-08T15:41:23.746Z,99501.97
2023-05-08T15:46:27.749Z,99500.53
2023-05-08T15:51:33.470Z,99498.66
2023-05-08T15:56:37.545Z,99507.88
2023-05-08T16:01:41.940Z,99498.16
2023-05-08T16:06:47.644Z,99497.13
2023-05-08T16:11:51.700Z,99494.28
2023-05-08T16:16:55.581Z,99480.03
2023-05-08T16:22:00.973Z,99469.13
2023-05-08T16:27:05.252Z,99473.75
2023-05-08T16:32:09.479Z,99473.09
2023-05-08T16:37:14.705Z,99485.72
2023-05-08T16:42:18.831Z,99484.25
2023-05-08T16:47:22.672Z,99476.88
2023-05-08T16:52:28.463Z,99478.59
2023-05-08T16:57:32.866Z,99467.94
2023-05-08T17:02:37.261Z,99463.75
2023-05-08T17:07:42.483Z,99483.19
2023-05-08T17:12:46.353Z,99479.28
2023-05-08T17:17:50.681Z,99471.59
2023-05-08T17:22:56.682Z,99477.63
2023-05-08T17:28:01.538Z,99473.03
2023-05-08T17:33:05.919Z,99475.13
2023-05-08T17:38:11.511Z,99467.66
2023-05-08T17:43:15.594Z,99446.47
2023-05-08T17:48:19.765Z,99467.13
2023-05-08T17:53:25.247Z,99472.25
2023-05-08T17:58:29.473Z,99476.50
2023-05-08T18:03:33.429Z,99477.47
2023-05-08T18:08:40.800Z,99468.88
2023-05-08T18:13:46.253Z,99476.47
2023-05-08T18:18:50.822Z,99478.31
2023-05-08T18:23:56.702Z,99482.84
2023-05-08T18:29:01.102Z,99489.31
2023-05-08T18:34:05.385Z,99485.59
2023-05-08T18:39:11.014Z,99485.69
2023-05-08T18:44:15.414Z,99492.91
2023-05-08T18:49:19.655Z,99502.47
2023-05-08T18:54:26.996Z,99512.38
2023-05-08T18:59:31.058Z,99509.16
2023-05-08T19:04:35.155Z,99506.16
2023-05-08T19:09:40.622Z,99503.81
2023-05-08T19:14:44.647Z,99512.91
2023-05-08T19:19:51.456Z,99503.28
2023-05-08T19:24:57.112Z,99502.91
2023-05-08T19:30:01.148Z,99506.75
2023-05-08T19:35:05.934Z,99511.47
2023-05-08T19:40:12.836Z,99499.91
2023-05-08T19:45:17.216Z,99502.06
2023-05-08T19:50:21.923Z,99502.16
2023-05-08T19:55:27.384Z,99492.72
2023-05-08T20:00:31.467Z,99489.59
2023-05-08T20:05:35.588Z,99486.88
2023-05-08T20:10:41.172Z,99485.75
2023-05-08T20:15:45.492Z,99486.78
2023-05-08T20:20:49.583Z,99492.06
2023-05-08T20:25:55.229Z,99487.84
2023-05-08T20:30:59.493Z,99478.28
2023-05-08T20:36:03.378Z,99474.31
2023-05-08T20:41:08.866Z,99480.06
2023-05-08T20:46:12.937Z,99482.88
2023-05-08T20:51:16.758Z,99482.88
2023-05-08T20:56:22.773Z,99474.88
2023-05-08T21:01:26.946Z,99470.75
2023-05-08T21:06:30.933Z,99466.50
2023-05-08T21:11:36.461Z,99467.31
2023-05-08T21:16:40.656Z,99465.78
2023-05-08T21:21:44.922Z,99461.66
2023-05-08T21:26:50.968Z,99456.59
2023-05-08T21:31:55.141Z,99465.69
2023-05-08T21:36:59.356Z,99459.31
2023-05-08T21:42:04.854Z,99467.09
2023-05-08T21:47:08.919Z,99463.78
2023-05-08T21:52:13.037Z,99462.03
2023-05-08T21:57:18.331Z,99458.09
2023-05-08T22:02:22.626Z,99456.09
2023-05-08T22:07:26.724Z,99452.06
2023-05-08T22:12:31.970Z,99446.19
2023-05-08T22:17:36.055Z,99443.69
2023-05-08T22:22:40.256Z,99442.88
2023-05-08T22:27:46.346Z,99438.31
2023-05-08T22:32:55.336Z,99435.72
2023-05-08T22:37:59.936Z,99425.91
2023-05-08T22:43:05.650Z,99428.84
2023-05-08T22:48:10.486Z,99423.53
2023-05-08T22:53:14.698Z,99425.19
2023-05-08T22:58:20.134Z,99424.56
2023-05-08T23:03:24.279Z,99422.47
2023-05-08T23:08:28.347Z,99425.03
2023-05-08T23:13:34.387Z,99423.41
2023-05-08T23:18:38.830Z,99421.25
2023-05-08T23:23:42.886Z,99413.47
2023-05-08T23:28:48.745Z,99412.91
2023-05-08T23:33:52.799Z,99419.72
2023-05-08T23:38:57.012Z,99416.78
2023-05-08T23:44:02.458Z,99413.69
2023-05-08T23:49:06.750Z,99413.69
2023-05-08T23:54:10.832Z,99405.06
2023-05-08T23:59:16.334Z,99407.66
